sensor_id;sensor_type;location;lat;lon;timestamp;P1;durP1;ratioP1;P2;durP2;ratioP2
73747;SDS011;62056;52.130;5.428;2023-06-19T00:02:13;7.28;;;6.60;;
73747;SDS011;62056;52.130;5.428;2023-06-19T00:04:40;6.30;;;5.70;;
73747;SDS011;62056;52.130;5.428;2023-06-19T00:07:06;9.88;;;6.70;;
73747;SDS011;62056;52.130;5.428;2023-06-19T00:09:33;8.20;;;7.50;;
73747;SDS011;62056;52.130;5.428;2023-06-19T00:12:00;7.03;;;6.53;;
73747;SDS011;62056;52.130;5.428;2023-06-19T00:14:27;7.22;;;6.35;;
73747;SDS011;62056;52.130;5.428;2023-06-19T00:16:54;6.73;;;6.13;;
73747;SDS011;62056;52.130;5.428;2023-06-19T00:19:21;7.90;;;7.18;;
73747;SDS011;62056;52.130;5.428;2023-06-19T00:21:49;11.40;;;6.32;;
73747;SDS011;62056;52.130;5.428;2023-06-19T00:24:15;7.22;;;6.72;;
73747;SDS011;62056;52.130;5.428;2023-06-19T00:26:42;7.72;;;7.13;;
73747;SDS011;62056;52.130;5.428;2023-06-19T00:29:09;8.40;;;7.80;;
73747;SDS011;62056;52.130;5.428;2023-06-19T00:31:36;19.30;;;14.60;;
73747;SDS011;62056;52.130;5.428;2023-06-19T00:34:03;16.60;;;15.00;;
73747;SDS011;62056;52.130;5.428;2023-06-19T00:36:30;8.05;;;7.35;;
73747;SDS011;62056;52.130;5.428;2023-06-19T00:38:56;8.40;;;6.22;;
73747;SDS011;62056;52.130;5.428;2023-06-19T00:41:23;8.60;;;7.30;;
73747;SDS011;62056;52.130;5.428;2023-06-19T00:43:52;5.80;;;5.20;;
73747;SDS011;62056;52.130;5.428;2023-06-19T00:46:20;8.30;;;7.50;;
73747;SDS011;62056;52.130;5.428;2023-06-19T00:48:47;10.43;;;7.07;;
73747;SDS011;62056;52.130;5.428;2023-06-19T00:51:14;8.43;;;7.45;;
73747;SDS011;62056;52.130;5.428;2023-06-19T00:53:41;8.10;;;7.40;;
73747;SDS011;62056;52.130;5.428;2023-06-19T00:56:08;7.95;;;7.30;;
73747;SDS011;62056;52.130;5.428;2023-06-19T00:58:35;8.13;;;7.47;;
73747;SDS011;62056;52.130;5.428;2023-06-19T01:01:02;6.90;;;6.30;;
73747;SDS011;62056;52.130;5.428;2023-06-19T01:03:34;7.68;;;6.93;;
73747;SDS011;62056;52.130;5.428;2023-06-19T01:06:04;9.70;;;7.57;;
73747;SDS011;62056;52.130;5.428;2023-06-19T01:08:41;10.13;;;9.07;;
73747;SDS011;62056;52.130;5.428;2023-06-19T01:11:17;8.05;;;6.88;;
73747;SDS011;62056;52.130;5.428;2023-06-19T01:13:58;7.35;;;6.65;;
73747;SDS011;62056;52.130;5.428;2023-06-19T01:16:28;11.48;;;10.48;;
73747;SDS011;62056;52.130;5.428;2023-06-19T01:18:56;7.57;;;6.97;;
73747;SDS011;62056;52.130;5.428;2023-06-19T01:21:24;8.90;;;8.20;;
73747;SDS011;62056;52.130;5.428;2023-06-19T01:23:51;8.38;;;7.68;;
73747;SDS011;62056;52.130;5.428;2023-06-19T01:26:17;11.30;;;10.40;;
73747;SDS011;62056;52.130;5.428;2023-06-19T01:28:44;7.43;;;6.82;;
73747;SDS011;62056;52.130;5.428;2023-06-19T01:31:17;8.83;;;8.07;;
73747;SDS011;62056;52.130;5.428;2023-06-19T01:33:49;6.03;;;5.50;;
73747;SDS011;62056;52.130;5.428;2023-06-19T01:36:18;4.78;;;4.38;;
73747;SDS011;62056;52.130;5.428;2023-06-19T01:38:47;4.03;;;3.60;;
73747;SDS011;62056;52.130;5.428;2023-06-19T01:41:15;4.93;;;3.42;;
73747;SDS011;62056;52.130;5.428;2023-06-19T01:43:43;4.13;;;2.90;;
73747;SDS011;62056;52.130;5.428;2023-06-19T01:46:11;3.13;;;2.83;;
73747;SDS011;62056;52.130;5.428;2023-06-19T01:48:38;2.65;;;2.33;;
73747;SDS011;62056;52.130;5.428;2023-06-19T01:51:07;4.13;;;2.75;;
73747;SDS011;62056;52.130;5.428;2023-06-19T01:53:34;2.03;;;1.83;;
73747;SDS011;62056;52.130;5.428;2023-06-19T01:56:01;1.60;;;1.40;;
73747;SDS011;62056;52.130;5.428;2023-06-19T01:58:28;1.80;;;1.65;;
73747;SDS011;62056;52.130;5.428;2023-06-19T02:00:54;3.45;;;2.10;;
73747;SDS011;62056;52.130;5.428;2023-06-19T02:03:21;2.05;;;1.75;;
73747;SDS011;62056;52.130;5.428;2023-06-19T02:05:48;2.20;;;2.00;;
73747;SDS011;62056;52.130;5.428;2023-06-19T02:08:15;3.13;;;2.63;;
73747;SDS011;62056;52.130;5.428;2023-06-19T02:10:41;2.17;;;1.98;;
73747;SDS011;62056;52.130;5.428;2023-06-19T02:13:08;2.83;;;2.55;;
73747;SDS011;62056;52.130;5.428;2023-06-19T02:15:35;5.20;;;4.70;;
73747;SDS011;62056;52.130;5.428;2023-06-19T02:18:29;3.03;;;2.70;;
73747;SDS011;62056;52.130;5.428;2023-06-19T02:20:56;4.70;;;4.30;;
73747;SDS011;62056;52.130;5.428;2023-06-19T02:23:23;5.20;;;4.80;;
73747;SDS011;62056;52.130;5.428;2023-06-19T02:25:49;3.50;;;3.20;;
73747;SDS011;62056;52.130;5.428;2023-06-19T02:28:16;6.28;;;4.45;;
73747;SDS011;62056;52.130;5.428;2023-06-19T02:30:43;4.20;;;3.90;;
73747;SDS011;62056;52.130;5.428;2023-06-19T02:33:10;6.20;;;5.80;;
73747;SDS011;62056;52.130;5.428;2023-06-19T02:35:36;7.00;;;6.40;;
73747;SDS011;62056;52.130;5.428;2023-06-19T02:38:03;5.25;;;4.85;;
73747;SDS011;62056;52.130;5.428;2023-06-19T02:40:30;9.18;;;8.52;;
73747;SDS011;62056;52.130;5.428;2023-06-19T02:42:57;4.85;;;4.43;;
73747;SDS011;62056;52.130;5.428;2023-06-19T02:45:24;10.33;;;9.23;;
73747;SDS011;62056;52.130;5.428;2023-06-19T02:47:51;5.15;;;4.65;;
73747;SDS011;62056;52.130;5.428;2023-06-19T02:50:18;6.88;;;6.38;;
73747;SDS011;62056;52.130;5.428;2023-06-19T02:52:45;3.60;;;3.30;;
73747;SDS011;62056;52.130;5.428;2023-06-19T02:55:12;4.13;;;3.50;;
73747;SDS011;62056;52.130;5.428;2023-06-19T02:57:39;3.67;;;2.07;;
73747;SDS011;62056;52.130;5.428;2023-06-19T03:00:05;2.10;;;1.90;;
73747;SDS011;62056;52.130;5.428;2023-06-19T03:02:34;2.45;;;2.20;;
73747;SDS011;62056;52.130;5.428;2023-06-19T03:05:01;2.05;;;1.70;;
73747;SDS011;62056;52.130;5.428;2023-06-19T03:07:29;12.07;;;10.90;;
73747;SDS011;62056;52.130;5.428;2023-06-19T03:09:55;6.40;;;5.83;;
73747;SDS011;62056;52.130;5.428;2023-06-19T03:12:22;3.65;;;3.35;;
73747;SDS011;62056;52.130;5.428;2023-06-19T03:14:48;3.83;;;3.38;;
73747;SDS011;62056;52.130;5.428;2023-06-19T03:17:15;3.35;;;3.05;;
73747;SDS011;62056;52.130;5.428;2023-06-19T03:19:42;6.20;;;5.80;;
73747;SDS011;62056;52.130;5.428;2023-06-19T03:22:09;4.10;;;3.80;;
73747;SDS011;62056;52.130;5.428;2023-06-19T03:24:36;4.43;;;3.45;;
73747;SDS011;62056;52.130;5.428;2023-06-19T03:27:02;3.03;;;2.70;;
73747;SDS011;62056;52.130;5.428;2023-06-19T03:29:29;4.28;;;3.88;;
73747;SDS011;62056;52.130;5.428;2023-06-19T03:31:56;4.45;;;4.07;;
73747;SDS011;62056;52.130;5.428;2023-06-19T03:34:23;3.00;;;2.80;;
73747;SDS011;62056;52.130;5.428;2023-06-19T03:36:49;3.00;;;2.80;;
73747;SDS011;62056;52.130;5.428;2023-06-19T03:39:16;7.55;;;3.55;;
73747;SDS011;62056;52.130;5.428;2023-06-19T03:41:42;3.58;;;3.28;;
73747;SDS011;62056;52.130;5.428;2023-06-19T03:44:09;3.05;;;2.30;;
73747;SDS011;62056;52.130;5.428;2023-06-19T03:46:36;2.67;;;2.47;;
73747;SDS011;62056;52.130;5.428;2023-06-19T03:49:02;4.93;;;3.25;;
73747;SDS011;62056;52.130;5.428;2023-06-19T03:51:31;5.30;;;4.80;;
73747;SDS011;62056;52.130;5.428;2023-06-19T03:53:57;3.90;;;2.85;;
73747;SDS011;62056;52.130;5.428;2023-06-19T03:56:24;3.75;;;2.90;;
73747;SDS011;62056;52.130;5.428;2023-06-19T03:58:51;3.33;;;3.03;;
73747;SDS011;62056;52.130;5.428;2023-06-19T04:01:18;4.45;;;3.08;;
73747;SDS011;62056;52.130;5.428;2023-06-19T04:03:44;3.58;;;3.28;;
73747;SDS011;62056;52.130;5.428;2023-06-19T04:06:14;5.45;;;4.45;;
73747;SDS011;62056;52.130;5.428;2023-06-19T04:08:41;7.55;;;6.85;;
73747;SDS011;62056;52.130;5.428;2023-06-19T04:11:08;5.87;;;5.37;;
73747;SDS011;62056;52.130;5.428;2023-06-19T04:13:34;6.70;;;5.00;;
73747;SDS011;62056;52.130;5.428;2023-06-19T04:16:01;5.03;;;4.53;;
73747;SDS011;62056;52.130;5.428;2023-06-19T04:18:28;5.32;;;4.82;;
73747;SDS011;62056;52.130;5.428;2023-06-19T04:20:55;5.60;;;5.10;;
73747;SDS011;62056;52.130;5.428;2023-06-19T04:23:22;5.60;;;5.20;;
73747;SDS011;62056;52.130;5.428;2023-06-19T04:25:49;6.38;;;5.88;;
73747;SDS011;62056;52.130;5.428;2023-06-19T04:28:15;9.90;;;7.20;;
73747;SDS011;62056;52.130;5.428;2023-06-19T04:30:42;7.78;;;7.07;;
73747;SDS011;62056;52.130;5.428;2023-06-19T04:33:09;9.43;;;8.52;;
73747;SDS011;62056;52.130;5.428;2023-06-19T04:35:36;7.33;;;6.63;;
73747;SDS011;62056;52.130;5.428;2023-06-19T04:38:09;8.02;;;7.15;;
73747;SDS011;62056;52.130;5.428;2023-06-19T04:40:36;7.47;;;6.88;;
73747;SDS011;62056;52.130;5.428;2023-06-19T04:43:03;7.80;;;6.25;;
73747;SDS011;62056;52.130;5.428;2023-06-19T04:45:31;8.75;;;7.85;;
73747;SDS011;62056;52.130;5.428;2023-06-19T04:47:58;7.23;;;6.53;;
73747;SDS011;62056;52.130;5.428;2023-06-19T04:50:30;8.13;;;7.32;;
73747;SDS011;62056;52.130;5.428;2023-06-19T04:52:56;7.55;;;6.85;;
73747;SDS011;62056;52.130;5.428;2023-06-19T04:55:23;5.82;;;5.32;;
73747;SDS011;62056;52.130;5.428;2023-06-19T04:57:52;4.95;;;4.55;;
73747;SDS011;62056;52.130;5.428;2023-06-19T05:00:19;4.57;;;4.17;;
73747;SDS011;62056;52.130;5.428;2023-06-19T05:02:46;3.20;;;2.88;;
73747;SDS011;62056;52.130;5.428;2023-06-19T05:05:13;3.00;;;2.30;;
73747;SDS011;62056;52.130;5.428;2023-06-19T05:07:40;2.33;;;2.13;;
73747;SDS011;62056;52.130;5.428;2023-06-19T05:10:10;3.30;;;2.38;;
73747;SDS011;62056;52.130;5.428;2023-06-19T05:12:40;2.57;;;2.13;;
73747;SDS011;62056;52.130;5.428;2023-06-19T05:15:07;3.28;;;2.60;;
73747;SDS011;62056;52.130;5.428;2023-06-19T05:17:34;5.30;;;2.70;;
73747;SDS011;62056;52.130;5.428;2023-06-19T05:20:01;2.53;;;2.33;;
73747;SDS011;62056;52.130;5.428;2023-06-19T05:22:27;4.00;;;3.60;;
73747;SDS011;62056;52.130;5.428;2023-06-19T05:24:54;3.03;;;2.83;;
73747;SDS011;62056;52.130;5.428;2023-06-19T05:27:21;5.47;;;4.40;;
73747;SDS011;62056;52.130;5.428;2023-06-19T05:29:48;3.80;;;3.50;;
73747;SDS011;62056;52.130;5.428;2023-06-19T05:32:14;4.18;;;3.58;;
73747;SDS011;62056;52.130;5.428;2023-06-19T05:34:41;3.83;;;3.53;;
73747;SDS011;62056;52.130;5.428;2023-06-19T05:37:08;3.47;;;3.17;;
73747;SDS011;62056;52.130;5.428;2023-06-19T05:39:35;4.10;;;3.75;;
73747;SDS011;62056;52.130;5.428;2023-06-19T05:42:01;3.35;;;2.92;;
73747;SDS011;62056;52.130;5.428;2023-06-19T05:44:28;5.13;;;3.08;;
73747;SDS011;62056;52.130;5.428;2023-06-19T05:46:55;3.50;;;3.20;;
73747;SDS011;62056;52.130;5.428;2023-06-19T05:49:22;4.90;;;3.53;;
73747;SDS011;62056;52.130;5.428;2023-06-19T05:51:49;5.65;;;2.88;;
73747;SDS011;62056;52.130;5.428;2023-06-19T05:54:16;4.03;;;2.83;;
73747;SDS011;62056;52.130;5.428;2023-06-19T05:56:46;3.20;;;3.00;;
73747;SDS011;62056;52.130;5.428;2023-06-19T05:59:16;4.15;;;3.80;;
73747;SDS011;62056;52.130;5.428;2023-06-19T06:01:43;6.37;;;4.53;;
73747;SDS011;62056;52.130;5.428;2023-06-19T06:04:10;4.13;;;3.83;;
73747;SDS011;62056;52.130;5.428;2023-06-19T06:06:37;4.82;;;4.43;;
73747;SDS011;62056;52.130;5.428;2023-06-19T06:09:06;3.85;;;3.55;;
73747;SDS011;62056;52.130;5.428;2023-06-19T06:11:37;3.90;;;3.60;;
73747;SDS011;62056;52.130;5.428;2023-06-19T06:14:04;4.60;;;4.20;;
73747;SDS011;62056;52.130;5.428;2023-06-19T06:16:30;4.68;;;4.28;;
73747;SDS011;62056;52.130;5.428;2023-06-19T06:18:58;4.85;;;4.45;;
73747;SDS011;62056;52.130;5.428;2023-06-19T06:21:25;5.15;;;4.65;;
73747;SDS011;62056;52.130;5.428;2023-06-19T06:23:52;5.32;;;3.85;;
73747;SDS011;62056;52.130;5.428;2023-06-19T06:26:19;4.33;;;3.93;;
73747;SDS011;62056;52.130;5.428;2023-06-19T06:28:46;5.68;;;5.10;;
73747;SDS011;62056;52.130;5.428;2023-06-19T06:31:12;5.82;;;4.28;;
73747;SDS011;62056;52.130;5.428;2023-06-19T06:33:39;6.43;;;3.55;;
73747;SDS011;62056;52.130;5.428;2023-06-19T06:36:06;4.75;;;3.63;;
73747;SDS011;62056;52.130;5.428;2023-06-19T06:38:34;4.87;;;3.50;;
73747;SDS011;62056;52.130;5.428;2023-06-19T06:41:01;3.92;;;3.25;;
73747;SDS011;62056;52.130;5.428;2023-06-19T06:43:28;4.32;;;3.25;;
73747;SDS011;62056;52.130;5.428;2023-06-19T06:45:55;4.85;;;4.45;;
73747;SDS011;62056;52.130;5.428;2023-06-19T06:48:26;5.82;;;4.55;;
73747;SDS011;62056;52.130;5.428;2023-06-19T06:50:56;4.30;;;3.90;;
73747;SDS011;62056;52.130;5.428;2023-06-19T06:53:25;4.43;;;4.03;;
73747;SDS011;62056;52.130;5.428;2023-06-19T06:55:52;4.43;;;3.60;;
73747;SDS011;62056;52.130;5.428;2023-06-19T06:58:19;5.70;;;5.20;;
73747;SDS011;62056;52.130;5.428;2023-06-19T07:00:45;6.07;;;4.97;;
73747;SDS011;62056;52.130;5.428;2023-06-19T07:03:20;5.80;;;5.20;;
73747;SDS011;62056;52.130;5.428;2023-06-19T07:05:47;6.40;;;5.40;;
73747;SDS011;62056;52.130;5.428;2023-06-19T07:08:14;7.28;;;5.88;;
73747;SDS011;62056;52.130;5.428;2023-06-19T07:10:41;5.43;;;5.03;;
73747;SDS011;62056;52.130;5.428;2023-06-19T07:13:09;7.25;;;6.65;;
73747;SDS011;62056;52.130;5.428;2023-06-19T07:15:35;8.90;;;6.80;;
73747;SDS011;62056;52.130;5.428;2023-06-19T07:18:02;7.00;;;6.40;;
73747;SDS011;62056;52.130;5.428;2023-06-19T07:20:29;5.72;;;5.05;;
73747;SDS011;62056;52.130;5.428;2023-06-19T07:22:56;8.20;;;6.13;;
73747;SDS011;62056;52.130;5.428;2023-06-19T07:25:23;5.82;;;5.30;;
73747;SDS011;62056;52.130;5.428;2023-06-19T07:27:51;5.73;;;5.17;;
73747;SDS011;62056;52.130;5.428;2023-06-19T07:30:19;6.55;;;5.82;;
73747;SDS011;62056;52.130;5.428;2023-06-19T07:32:47;7.30;;;5.25;;
73747;SDS011;62056;52.130;5.428;2023-06-19T07:35:14;9.88;;;6.35;;
73747;SDS011;62056;52.130;5.428;2023-06-19T07:37:41;8.43;;;5.43;;
73747;SDS011;62056;52.130;5.428;2023-06-19T07:40:09;5.30;;;4.90;;
73747;SDS011;62056;52.130;5.428;2023-06-19T07:42:36;7.68;;;6.30;;
73747;SDS011;62056;52.130;5.428;2023-06-19T07:45:03;7.75;;;6.90;;
73747;SDS011;62056;52.130;5.428;2023-06-19T07:47:31;9.38;;;5.90;;
73747;SDS011;62056;52.130;5.428;2023-06-19T07:49:58;6.90;;;5.40;;
73747;SDS011;62056;52.130;5.428;2023-06-19T07:52:24;6.87;;;6.17;;
73747;SDS011;62056;52.130;5.428;2023-06-19T07:54:53;7.95;;;6.97;;
73747;SDS011;62056;52.130;5.428;2023-06-19T07:57:22;10.30;;;7.80;;
73747;SDS011;62056;52.130;5.428;2023-06-19T07:59:50;8.65;;;6.78;;
73747;SDS011;62056;52.130;5.428;2023-06-19T08:02:19;12.65;;;8.63;;
73747;SDS011;62056;52.130;5.428;2023-06-19T08:04:46;8.87;;;8.13;;
73747;SDS011;62056;52.130;5.428;2023-06-19T08:07:13;10.13;;;7.95;;
73747;SDS011;62056;52.130;5.428;2023-06-19T08:09:40;9.80;;;6.93;;
73747;SDS011;62056;52.130;5.428;2023-06-19T08:12:07;11.10;;;8.68;;
73747;SDS011;62056;52.130;5.428;2023-06-19T08:14:37;16.42;;;8.82;;
73747;SDS011;62056;52.130;5.428;2023-06-19T08:17:05;9.90;;;8.77;;
73747;SDS011;62056;52.130;5.428;2023-06-19T08:19:32;19.25;;;10.07;;
73747;SDS011;62056;52.130;5.428;2023-06-19T08:22:09;13.63;;;8.70;;
73747;SDS011;62056;52.130;5.428;2023-06-19T08:27:25;17.55;;;8.15;;
73747;SDS011;62056;52.130;5.428;2023-06-19T08:29:52;10.37;;;7.90;;
73747;SDS011;62056;52.130;5.428;2023-06-19T08:32:19;11.23;;;8.20;;
73747;SDS011;62056;52.130;5.428;2023-06-19T08:34:52;7.70;;;6.82;;
73747;SDS011;62056;52.130;5.428;2023-06-19T08:37:19;8.82;;;8.02;;
73747;SDS011;62056;52.130;5.428;2023-06-19T08:39:45;9.48;;;8.57;;
73747;SDS011;62056;52.130;5.428;2023-06-19T08:42:17;9.77;;;8.80;;
73747;SDS011;62056;52.130;5.428;2023-06-19T08:44:44;9.85;;;8.85;;
73747;SDS011;62056;52.130;5.428;2023-06-19T08:47:12;8.27;;;7.47;;
73747;SDS011;62056;52.130;5.428;2023-06-19T08:49:39;10.20;;;9.30;;
73747;SDS011;62056;52.130;5.428;2023-06-19T08:52:06;10.30;;;9.23;;
73747;SDS011;62056;52.130;5.428;2023-06-19T08:54:36;8.03;;;7.33;;
73747;SDS011;62056;52.130;5.428;2023-06-19T08:57:14;12.25;;;8.85;;
73747;SDS011;62056;52.130;5.428;2023-06-19T08:59:47;7.78;;;6.00;;
73747;SDS011;62056;52.130;5.428;2023-06-19T09:02:16;9.35;;;8.45;;
73747;SDS011;62056;52.130;5.428;2023-06-19T09:04:43;10.48;;;8.23;;
73747;SDS011;62056;52.130;5.428;2023-06-19T09:07:11;10.60;;;9.47;;
73747;SDS011;62056;52.130;5.428;2023-06-19T09:09:43;9.32;;;8.38;;
73747;SDS011;62056;52.130;5.428;2023-06-19T09:12:12;10.48;;;9.57;;
73747;SDS011;62056;52.130;5.428;2023-06-19T09:14:41;10.00;;;9.02;;
73747;SDS011;62056;52.130;5.428;2023-06-19T09:17:10;10.63;;;9.68;;
73747;SDS011;62056;52.130;5.428;2023-06-19T09:19:47;11.33;;;9.10;;
73747;SDS011;62056;52.130;5.428;2023-06-19T09:22:17;13.73;;;11.23;;
73747;SDS011;62056;52.130;5.428;2023-06-19T09:24:45;12.00;;;10.23;;
73747;SDS011;62056;52.130;5.428;2023-06-19T09:27:13;12.43;;;11.27;;
73747;SDS011;62056;52.130;5.428;2023-06-19T09:29:42;11.48;;;10.32;;
73747;SDS011;62056;52.130;5.428;2023-06-19T09:32:14;11.57;;;10.40;;
73747;SDS011;62056;52.130;5.428;2023-06-19T09:34:56;14.93;;;11.15;;
73747;SDS011;62056;52.130;5.428;2023-06-19T09:37:28;11.05;;;9.90;;
73747;SDS011;62056;52.130;5.428;2023-06-19T09:39:57;12.27;;;9.82;;
73747;SDS011;62056;52.130;5.428;2023-06-19T09:42:43;12.00;;;10.77;;
73747;SDS011;62056;52.130;5.428;2023-06-19T09:45:13;13.27;;;11.33;;
73747;SDS011;62056;52.130;5.428;2023-06-19T09:47:46;11.25;;;10.30;;
73747;SDS011;62056;52.130;5.428;2023-06-19T09:50:16;11.30;;;10.20;;
73747;SDS011;62056;52.130;5.428;2023-06-19T09:52:44;11.02;;;10.02;;
73747;SDS011;62056;52.130;5.428;2023-06-19T09:55:12;13.57;;;10.77;;
73747;SDS011;62056;52.130;5.428;2023-06-19T09:57:42;12.20;;;11.00;;
73747;SDS011;62056;52.130;5.428;2023-06-19T10:00:11;12.63;;;11.43;;
73747;SDS011;62056;52.130;5.428;2023-06-19T10:02:48;11.30;;;8.65;;
73747;SDS011;62056;52.130;5.428;2023-06-19T10:08:25;11.27;;;10.27;;
73747;SDS011;62056;52.130;5.428;2023-06-19T10:10:57;11.97;;;10.77;;
73747;SDS011;62056;52.130;5.428;2023-06-19T10:13:37;10.88;;;9.02;;
73747;SDS011;62056;52.130;5.428;2023-06-19T10:16:24;11.50;;;10.30;;
73747;SDS011;62056;52.130;5.428;2023-06-19T10:18:56;18.33;;;10.82;;
73747;SDS011;62056;52.130;5.428;2023-06-19T10:21:23;8.45;;;7.63;;
73747;SDS011;62056;52.130;5.428;2023-06-19T10:23:55;9.80;;;8.90;;
73747;SDS011;62056;52.130;5.428;2023-06-19T10:26:31;9.23;;;8.27;;
73747;SDS011;62056;52.130;5.428;2023-06-19T10:29:00;10.38;;;9.48;;
73747;SDS011;62056;52.130;5.428;2023-06-19T10:31:36;9.15;;;8.35;;
73747;SDS011;62056;52.130;5.428;2023-06-19T10:34:09;15.38;;;9.32;;
73747;SDS011;62056;52.130;5.428;2023-06-19T10:36:38;8.70;;;7.90;;
73747;SDS011;62056;52.130;5.428;2023-06-19T10:39:05;10.20;;;9.20;;
73747;SDS011;62056;52.130;5.428;2023-06-19T10:41:33;8.75;;;7.13;;
73747;SDS011;62056;52.130;5.428;2023-06-19T10:44:11;10.35;;;8.65;;
73747;SDS011;62056;52.130;5.428;2023-06-19T10:46:43;10.65;;;8.95;;
73747;SDS011;62056;52.130;5.428;2023-06-19T10:49:12;11.97;;;10.87;;
73747;SDS011;62056;52.130;5.428;2023-06-19T10:51:44;12.45;;;10.13;;
73747;SDS011;62056;52.130;5.428;2023-06-19T10:54:14;14.57;;;10.35;;
73747;SDS011;62056;52.130;5.428;2023-06-19T10:56:42;10.70;;;9.90;;
73747;SDS011;62056;52.130;5.428;2023-06-19T10:59:11;9.30;;;8.48;;
73747;SDS011;62056;52.130;5.428;2023-06-19T11:01:39;11.33;;;10.27;;
73747;SDS011;62056;52.130;5.428;2023-06-19T11:04:09;12.10;;;10.25;;
73747;SDS011;62056;52.130;5.428;2023-06-19T11:06:38;10.55;;;9.70;;
73747;SDS011;62056;52.130;5.428;2023-06-19T11:09:15;11.85;;;10.27;;
73747;SDS011;62056;52.130;5.428;2023-06-19T11:11:45;12.02;;;10.10;;
73747;SDS011;62056;52.130;5.428;2023-06-19T11:14:14;12.13;;;9.60;;
73747;SDS011;62056;52.130;5.428;2023-06-19T11:16:46;12.20;;;8.90;;
73747;SDS011;62056;52.130;5.428;2023-06-19T11:19:17;10.40;;;9.43;;
73747;SDS011;62056;52.130;5.428;2023-06-19T11:21:50;10.65;;;9.57;;
73747;SDS011;62056;52.130;5.428;2023-06-19T11:24:18;9.40;;;8.68;;
73747;SDS011;62056;52.130;5.428;2023-06-19T11:26:55;7.97;;;7.27;;
73747;SDS011;62056;52.130;5.428;2023-06-19T11:32:05;13.05;;;9.20;;
73747;SDS011;62056;52.130;5.428;2023-06-19T11:34:35;9.73;;;8.60;;
73747;SDS011;62056;52.130;5.428;2023-06-19T11:39:47;10.03;;;9.13;;
73747;SDS011;62056;52.130;5.428;2023-06-19T11:42:16;11.93;;;9.27;;
73747;SDS011;62056;52.130;5.428;2023-06-19T11:44:53;9.32;;;8.55;;
73747;SDS011;62056;52.130;5.428;2023-06-19T11:47:21;11.60;;;6.90;;
73747;SDS011;62056;52.130;5.428;2023-06-19T11:49:50;13.38;;;8.63;;
73747;SDS011;62056;52.130;5.428;2023-06-19T11:52:18;10.40;;;7.43;;
73747;SDS011;62056;52.130;5.428;2023-06-19T11:54:45;9.85;;;8.50;;
73747;SDS011;62056;52.130;5.428;2023-06-19T11:57:12;9.27;;;8.55;;
73747;SDS011;62056;52.130;5.428;2023-06-19T11:59:39;9.25;;;8.15;;
73747;SDS011;62056;52.130;5.428;2023-06-19T12:02:07;9.15;;;8.20;;
73747;SDS011;62056;52.130;5.428;2023-06-19T12:04:35;10.93;;;6.27;;
73747;SDS011;62056;52.130;5.428;2023-06-19T12:07:03;7.70;;;6.75;;
73747;SDS011;62056;52.130;5.428;2023-06-19T12:09:30;7.75;;;7.15;;
73747;SDS011;62056;52.130;5.428;2023-06-19T12:11:58;7.78;;;7.00;;
73747;SDS011;62056;52.130;5.428;2023-06-19T12:14:26;8.27;;;7.50;;
73747;SDS011;62056;52.130;5.428;2023-06-19T12:16:53;8.43;;;7.63;;
73747;SDS011;62056;52.130;5.428;2023-06-19T12:19:20;10.38;;;7.40;;
73747;SDS011;62056;52.130;5.428;2023-06-19T12:21:46;10.00;;;9.00;;
73747;SDS011;62056;52.130;5.428;2023-06-19T12:24:13;7.53;;;6.82;;
73747;SDS011;62056;52.130;5.428;2023-06-19T12:26:40;13.75;;;8.52;;
73747;SDS011;62056;52.130;5.428;2023-06-19T12:29:07;9.07;;;7.77;;
73747;SDS011;62056;52.130;5.428;2023-06-19T12:31:35;11.65;;;8.90;;
73747;SDS011;62056;52.130;5.428;2023-06-19T12:34:07;8.10;;;6.90;;
73747;SDS011;62056;52.130;5.428;2023-06-19T12:36:55;7.63;;;7.00;;
73747;SDS011;62056;52.130;5.428;2023-06-19T12:39:24;8.13;;;7.43;;
73747;SDS011;62056;52.130;5.428;2023-06-19T12:41:51;7.33;;;6.80;;
73747;SDS011;62056;52.130;5.428;2023-06-19T12:44:20;8.07;;;7.38;;
73747;SDS011;62056;52.130;5.428;2023-06-19T12:46:52;8.95;;;8.15;;
73747;SDS011;62056;52.130;5.428;2023-06-19T12:49:20;8.60;;;7.85;;
73747;SDS011;62056;52.130;5.428;2023-06-19T12:51:48;8.50;;;7.65;;
73747;SDS011;62056;52.130;5.428;2023-06-19T12:54:18;7.63;;;6.70;;
73747;SDS011;62056;52.130;5.428;2023-06-19T12:56:45;9.50;;;6.22;;
73747;SDS011;62056;52.130;5.428;2023-06-19T12:59:12;10.77;;;7.07;;
73747;SDS011;62056;52.130;5.428;2023-06-19T13:01:39;6.18;;;5.72;;
73747;SDS011;62056;52.130;5.428;2023-06-19T13:04:06;9.07;;;8.00;;
73747;SDS011;62056;52.130;5.428;2023-06-19T13:06:33;7.60;;;6.93;;
73747;SDS011;62056;52.130;5.428;2023-06-19T13:09:01;6.90;;;6.40;;
73747;SDS011;62056;52.130;5.428;2023-06-19T13:11:31;7.47;;;6.88;;
73747;SDS011;62056;52.130;5.428;2023-06-19T13:14:00;8.68;;;8.07;;
73747;SDS011;62056;52.130;5.428;2023-06-19T13:16:31;7.88;;;7.28;;
73747;SDS011;62056;52.130;5.428;2023-06-19T13:19:12;7.73;;;7.13;;
73747;SDS011;62056;52.130;5.428;2023-06-19T13:21:45;9.25;;;6.70;;
73747;SDS011;62056;52.130;5.428;2023-06-19T13:24:12;7.63;;;6.60;;
73747;SDS011;62056;52.130;5.428;2023-06-19T13:26:42;9.77;;;6.88;;
73747;SDS011;62056;52.130;5.428;2023-06-19T13:29:11;8.25;;;7.45;;
73747;SDS011;62056;52.130;5.428;2023-06-19T13:31:40;13.60;;;6.83;;
73747;SDS011;62056;52.130;5.428;2023-06-19T13:34:07;7.45;;;6.60;;
73747;SDS011;62056;52.130;5.428;2023-06-19T13:36:34;6.30;;;5.80;;
73747;SDS011;62056;52.130;5.428;2023-06-19T13:39:01;7.38;;;6.47;;
73747;SDS011;62056;52.130;5.428;2023-06-19T13:41:31;6.57;;;6.15;;
73747;SDS011;62056;52.130;5.428;2023-06-19T13:44:00;6.50;;;6.10;;
73747;SDS011;62056;52.130;5.428;2023-06-19T13:46:27;6.50;;;5.88;;
73747;SDS011;62056;52.130;5.428;2023-06-19T13:48:55;7.25;;;6.60;;
73747;SDS011;62056;52.130;5.428;2023-06-19T13:51:22;6.35;;;5.82;;
73747;SDS011;62056;52.130;5.428;2023-06-19T13:53:49;7.30;;;5.20;;
73747;SDS011;62056;52.130;5.428;2023-06-19T13:56:17;8.00;;;5.20;;
73747;SDS011;62056;52.130;5.428;2023-06-19T13:58:45;6.20;;;5.60;;
73747;SDS011;62056;52.130;5.428;2023-06-19T14:01:15;6.28;;;5.35;;
73747;SDS011;62056;52.130;5.428;2023-06-19T14:03:42;6.03;;;5.47;;
73747;SDS011;62056;52.130;5.428;2023-06-19T14:06:09;6.32;;;5.72;;
73747;SDS011;62056;52.130;5.428;2023-06-19T14:08:46;6.33;;;5.83;;
73747;SDS011;62056;52.130;5.428;2023-06-19T14:11:13;6.68;;;5.57;;
73747;SDS011;62056;52.130;5.428;2023-06-19T14:13:40;5.50;;;5.05;;
73747;SDS011;62056;52.130;5.428;2023-06-19T14:16:07;6.57;;;6.07;;
73747;SDS011;62056;52.130;5.428;2023-06-19T14:18:34;6.38;;;5.78;;
73747;SDS011;62056;52.130;5.428;2023-06-19T14:21:03;6.50;;;5.47;;
73747;SDS011;62056;52.130;5.428;2023-06-19T14:23:31;7.10;;;5.70;;
73747;SDS011;62056;52.130;5.428;2023-06-19T14:26:03;5.35;;;4.82;;
73747;SDS011;62056;52.130;5.428;2023-06-19T14:28:32;7.68;;;5.05;;
73747;SDS011;62056;52.130;5.428;2023-06-19T14:31:01;5.40;;;4.90;;
73747;SDS011;62056;52.130;5.428;2023-06-19T14:33:28;6.27;;;5.50;;
73747;SDS011;62056;52.130;5.428;2023-06-19T14:35:54;6.63;;;5.53;;
73747;SDS011;62056;52.130;5.428;2023-06-19T14:38:28;8.73;;;5.25;;
73747;SDS011;62056;52.130;5.428;2023-06-19T14:40:58;5.07;;;4.57;;
73747;SDS011;62056;52.130;5.428;2023-06-19T14:43:29;6.60;;;5.30;;
73747;SDS011;62056;52.130;5.428;2023-06-19T14:45:59;5.90;;;5.03;;
73747;SDS011;62056;52.130;5.428;2023-06-19T14:48:26;5.60;;;4.93;;
73747;SDS011;62056;52.130;5.428;2023-06-19T14:50:53;6.10;;;4.68;;
73747;SDS011;62056;52.130;5.428;2023-06-19T14:53:20;5.78;;;5.28;;
73747;SDS011;62056;52.130;5.428;2023-06-19T14:55:46;5.45;;;5.05;;
73747;SDS011;62056;52.130;5.428;2023-06-19T14:58:14;5.10;;;4.70;;
73747;SDS011;62056;52.130;5.428;2023-06-19T15:00:42;7.45;;;5.40;;
73747;SDS011;62056;52.130;5.428;2023-06-19T15:03:09;6.55;;;5.30;;